LFRS 221130Z AUTO 24013KT 200V270 9999 BKN024 13/08 Q1031 NOSIG

ElémentsDécodage
LFRS Station météo située sur l'aérodrome de NANTES Atlantique
221130Z émis le 22 du mois à 11h30 UTC
AUTO Bulletin édité par un automate
24013KT vent du 240°, 13 noeuds
200V270 vent de direction variable entre 200° et 270°
9999 visibilité horizontale supérieure à 10 Km
BKN024 nuages morcelés (5/8 à 7/8) à 2400 pieds
13/08 température 13°C, point de rosée 08°C
 soit une humidité relative de 72%
Q1031 la pression au niveau de la mer (QNH) est de 1031 hPa
NOSIG Pas de changement significatif prévu au cours des deux heures suivant l'heure de l'observation